sensor_id;sensor_type;location;lat;lon;timestamp;temperature;humidity
68051;DHT22;54839;51.364;7.246;2022-08-01T00:00:27;18.40;99.90
68051;DHT22;54839;51.364;7.246;2022-08-01T00:02:53;18.40;99.90
68051;DHT22;54839;51.364;7.246;2022-08-01T00:05:19;18.30;99.90
68051;DHT22;54839;51.364;7.246;2022-08-01T00:07:44;18.20;99.90
68051;DHT22;54839;51.364;7.246;2022-08-01T00:10:13;18.20;99.90
68051;DHT22;54839;51.364;7.246;2022-08-01T00:12:39;18.30;99.90
68051;DHT22;54839;51.364;7.246;2022-08-01T00:15:07;18.30;99.90
68051;DHT22;54839;51.364;7.246;2022-08-01T00:17:33;18.20;99.90
68051;DHT22;54839;51.364;7.246;2022-08-01T00:19:59;18.30;99.90
68051;DHT22;54839;51.364;7.246;2022-08-01T00:22:25;18.30;99.90
68051;DHT22;54839;51.364;7.246;2022-08-01T00:24:51;18.30;99.90
68051;DHT22;54839;51.364;7.246;2022-08-01T00:27:16;18.40;99.90
68051;DHT22;54839;51.364;7.246;2022-08-01T00:29:42;18.30;99.90
68051;DHT22;54839;51.364;7.246;2022-08-01T00:32:08;18.40;99.90
68051;DHT22;54839;51.364;7.246;2022-08-01T00:34:33;18.30;99.90
68051;DHT22;54839;51.364;7.246;2022-08-01T00:36:59;18.20;99.90
68051;DHT22;54839;51.364;7.246;2022-08-01T00:39:25;18.20;99.90
68051;DHT22;54839;51.364;7.246;2022-08-01T00:41:50;18.20;99.90
68051;DHT22;54839;51.364;7.246;2022-08-01T00:44:16;18.30;99.90
68051;DHT22;54839;51.364;7.246;2022-08-01T00:46:42;18.10;99.90
68051;DHT22;54839;51.364;7.246;2022-08-01T00:49:07;18.20;99.90
68051;DHT22;54839;51.364;7.246;2022-08-01T00:51:33;18.10;99.90
68051;DHT22;54839;51.364;7.246;2022-08-01T00:54:00;18.20;99.90
68051;DHT22;54839;51.364;7.246;2022-08-01T00:56:27;18.20;99.90
68051;DHT22;54839;51.364;7.246;2022-08-01T00:58:55;18.20;99.90
68051;DHT22;54839;51.364;7.246;2022-08-01T01:01:21;18.20;99.90
68051;DHT22;54839;51.364;7.246;2022-08-01T01:03:51;18.20;99.90
68051;DHT22;54839;51.364;7.246;2022-08-01T01:11:43;18.10;99.90
68051;DHT22;54839;51.364;7.246;2022-08-01T01:14:23;18.30;99.90
68051;DHT22;54839;51.364;7.246;2022-08-01T01:16:53;18.20;99.90
68051;DHT22;54839;51.364;7.246;2022-08-01T01:19:23;18.20;99.90
68051;DHT22;54839;51.364;7.246;2022-08-01T01:27:39;18.20;99.90
68051;DHT22;54839;51.364;7.246;2022-08-01T01:30:08;18.10;99.90
68051;DHT22;54839;51.364;7.246;2022-08-01T01:32:44;18.30;99.90
68051;DHT22;54839;51.364;7.246;2022-08-01T01:35:19;18.30;99.90
68051;DHT22;54839;51.364;7.246;2022-08-01T01:37:48;18.20;99.90
68051;DHT22;54839;51.364;7.246;2022-08-01T01:40:15;18.30;99.90
68051;DHT22;54839;51.364;7.246;2022-08-01T01:42:43;18.20;99.90
68051;DHT22;54839;51.364;7.246;2022-08-01T01:45:09;18.20;99.90
68051;DHT22;54839;51.364;7.246;2022-08-01T01:47:36;18.30;99.90
68051;DHT22;54839;51.364;7.246;2022-08-01T01:50:04;18.30;99.90
68051;DHT22;54839;51.364;7.246;2022-08-01T01:52:32;18.40;99.90
68051;DHT22;54839;51.364;7.246;2022-08-01T01:54:59;18.30;99.90
68051;DHT22;54839;51.364;7.246;2022-08-01T01:57:26;18.30;99.90
68051;DHT22;54839;51.364;7.246;2022-08-01T01:59:57;18.40;99.90
68051;DHT22;54839;51.364;7.246;2022-08-01T02:02:24;18.30;99.90
68051;DHT22;54839;51.364;7.246;2022-08-01T02:04:51;18.50;99.90
68051;DHT22;54839;51.364;7.246;2022-08-01T02:07:22;18.70;99.90
68051;DHT22;54839;51.364;7.246;2022-08-01T02:09:50;18.50;99.90
68051;DHT22;54839;51.364;7.246;2022-08-01T02:12:17;18.60;99.90
68051;DHT22;54839;51.364;7.246;2022-08-01T02:14:45;18.50;99.90
68051;DHT22;54839;51.364;7.246;2022-08-01T02:17:16;18.40;99.90
68051;DHT22;54839;51.364;7.246;2022-08-01T02:19:42;18.40;99.90
68051;DHT22;54839;51.364;7.246;2022-08-01T02:22:11;18.50;99.90
68051;DHT22;54839;51.364;7.246;2022-08-01T02:24:52;18.50;99.90
68051;DHT22;54839;51.364;7.246;2022-08-01T02:27:38;18.60;99.90
68051;DHT22;54839;51.364;7.246;2022-08-01T02:30:07;18.60;99.90
68051;DHT22;54839;51.364;7.246;2022-08-01T02:32:38;18.50;99.90
68051;DHT22;54839;51.364;7.246;2022-08-01T02:35:08;18.50;99.90
68051;DHT22;54839;51.364;7.246;2022-08-01T02:37:38;18.50;99.90
68051;DHT22;54839;51.364;7.246;2022-08-01T02:40:05;18.50;99.90
68051;DHT22;54839;51.364;7.246;2022-08-01T02:42:34;18.50;99.90
68051;DHT22;54839;51.364;7.246;2022-08-01T02:45:02;18.50;99.90
68051;DHT22;54839;51.364;7.246;2022-08-01T02:47:30;18.60;99.90
68051;DHT22;54839;51.364;7.246;2022-08-01T02:49:58;18.50;99.90
68051;DHT22;54839;51.364;7.246;2022-08-01T02:52:27;18.50;99.90
68051;DHT22;54839;51.364;7.246;2022-08-01T02:54:55;18.60;99.90
68051;DHT22;54839;51.364;7.246;2022-08-01T02:57:22;18.70;99.90
68051;DHT22;54839;51.364;7.246;2022-08-01T02:59:49;18.60;99.90
68051;DHT22;54839;51.364;7.246;2022-08-01T03:02:16;18.60;99.90
68051;DHT22;54839;51.364;7.246;2022-08-01T03:04:43;18.60;99.90
68051;DHT22;54839;51.364;7.246;2022-08-01T03:07:11;18.50;99.90
68051;DHT22;54839;51.364;7.246;2022-08-01T03:09:44;18.60;99.90
68051;DHT22;54839;51.364;7.246;2022-08-01T03:12:15;18.60;99.90
68051;DHT22;54839;51.364;7.246;2022-08-01T03:14:43;18.60;99.90
68051;DHT22;54839;51.364;7.246;2022-08-01T03:17:10;18.70;99.90
68051;DHT22;54839;51.364;7.246;2022-08-01T03:19:38;18.60;99.90
68051;DHT22;54839;51.364;7.246;2022-08-01T03:22:08;18.60;99.90
68051;DHT22;54839;51.364;7.246;2022-08-01T03:24:36;18.60;99.90
68051;DHT22;54839;51.364;7.246;2022-08-01T03:27:03;18.70;99.90
68051;DHT22;54839;51.364;7.246;2022-08-01T03:29:29;18.80;99.90
68051;DHT22;54839;51.364;7.246;2022-08-01T03:31:57;18.70;99.90
68051;DHT22;54839;51.364;7.246;2022-08-01T03:34:23;18.50;99.90
68051;DHT22;54839;51.364;7.246;2022-08-01T03:36:55;18.60;99.90
68051;DHT22;54839;51.364;7.246;2022-08-01T03:39:27;18.60;99.90
68051;DHT22;54839;51.364;7.246;2022-08-01T03:41:57;18.50;99.90
68051;DHT22;54839;51.364;7.246;2022-08-01T03:44:27;18.60;99.90
68051;DHT22;54839;51.364;7.246;2022-08-01T03:47:00;18.50;99.90
68051;DHT22;54839;51.364;7.246;2022-08-01T03:49:30;18.50;99.90
68051;DHT22;54839;51.364;7.246;2022-08-01T03:51:57;18.50;99.90
68051;DHT22;54839;51.364;7.246;2022-08-01T03:54:25;18.50;99.90
68051;DHT22;54839;51.364;7.246;2022-08-01T03:56:52;18.50;99.90
68051;DHT22;54839;51.364;7.246;2022-08-01T03:59:19;18.60;99.90
68051;DHT22;54839;51.364;7.246;2022-08-01T04:01:46;18.60;99.90
68051;DHT22;54839;51.364;7.246;2022-08-01T04:04:13;18.50;99.90
68051;DHT22;54839;51.364;7.246;2022-08-01T04:06:40;18.50;99.90
68051;DHT22;54839;51.364;7.246;2022-08-01T04:09:09;18.60;99.90
68051;DHT22;54839;51.364;7.246;2022-08-01T04:11:35;18.60;99.90
68051;DHT22;54839;51.364;7.246;2022-08-01T04:14:01;18.70;99.90
68051;DHT22;54839;51.364;7.246;2022-08-01T04:16:26;18.60;99.90
68051;DHT22;54839;51.364;7.246;2022-08-01T04:18:52;18.60;99.90
68051;DHT22;54839;51.364;7.246;2022-08-01T04:21:22;18.90;99.90
68051;DHT22;54839;51.364;7.246;2022-08-01T04:23:49;18.80;99.90
68051;DHT22;54839;51.364;7.246;2022-08-01T04:26:17;18.80;99.90
68051;DHT22;54839;51.364;7.246;2022-08-01T04:28:44;18.70;99.90
68051;DHT22;54839;51.364;7.246;2022-08-01T04:31:10;18.70;99.90
68051;DHT22;54839;51.364;7.246;2022-08-01T04:33:40;18.70;99.90
68051;DHT22;54839;51.364;7.246;2022-08-01T04:36:10;18.70;99.90
68051;DHT22;54839;51.364;7.246;2022-08-01T04:38:36;18.60;99.90
68051;DHT22;54839;51.364;7.246;2022-08-01T04:41:03;18.60;99.90
68051;DHT22;54839;51.364;7.246;2022-08-01T04:43:32;18.70;99.90
68051;DHT22;54839;51.364;7.246;2022-08-01T04:45:58;18.70;99.90
68051;DHT22;54839;51.364;7.246;2022-08-01T04:48:24;18.70;99.90
68051;DHT22;54839;51.364;7.246;2022-08-01T04:50:51;18.70;99.90
68051;DHT22;54839;51.364;7.246;2022-08-01T04:53:18;18.80;99.90
68051;DHT22;54839;51.364;7.246;2022-08-01T04:55:45;18.80;99.90
68051;DHT22;54839;51.364;7.246;2022-08-01T04:58:12;19.00;99.90
68051;DHT22;54839;51.364;7.246;2022-08-01T05:00:37;18.80;99.90
68051;DHT22;54839;51.364;7.246;2022-08-01T05:03:03;19.00;99.90
68051;DHT22;54839;51.364;7.246;2022-08-01T05:05:29;19.00;99.90
68051;DHT22;54839;51.364;7.246;2022-08-01T05:07:56;18.90;99.90
68051;DHT22;54839;51.364;7.246;2022-08-01T05:10:21;19.00;99.90
68051;DHT22;54839;51.364;7.246;2022-08-01T05:12:47;18.90;99.90
68051;DHT22;54839;51.364;7.246;2022-08-01T05:15:13;19.10;99.90
68051;DHT22;54839;51.364;7.246;2022-08-01T05:17:38;19.10;99.90
68051;DHT22;54839;51.364;7.246;2022-08-01T05:20:04;19.10;99.90
68051;DHT22;54839;51.364;7.246;2022-08-01T05:22:31;19.00;99.90
68051;DHT22;54839;51.364;7.246;2022-08-01T05:24:57;19.10;99.90
68051;DHT22;54839;51.364;7.246;2022-08-01T05:27:24;19.00;99.90
68051;DHT22;54839;51.364;7.246;2022-08-01T05:29:50;19.00;99.90
68051;DHT22;54839;51.364;7.246;2022-08-01T05:32:16;19.00;99.90
68051;DHT22;54839;51.364;7.246;2022-08-01T05:34:41;19.00;99.90
68051;DHT22;54839;51.364;7.246;2022-08-01T05:37:07;19.10;99.90
68051;DHT22;54839;51.364;7.246;2022-08-01T05:39:33;19.10;99.90
68051;DHT22;54839;51.364;7.246;2022-08-01T05:41:59;19.30;99.90
68051;DHT22;54839;51.364;7.246;2022-08-01T05:44:25;19.50;99.90
68051;DHT22;54839;51.364;7.246;2022-08-01T05:46:51;19.80;99.90
68051;DHT22;54839;51.364;7.246;2022-08-01T05:49:16;19.90;99.90
68051;DHT22;54839;51.364;7.246;2022-08-01T05:51:42;19.80;99.90
68051;DHT22;54839;51.364;7.246;2022-08-01T05:54:08;19.60;99.90
68051;DHT22;54839;51.364;7.246;2022-08-01T05:56:33;19.60;99.90
68051;DHT22;54839;51.364;7.246;2022-08-01T05:58:59;19.60;99.90
68051;DHT22;54839;51.364;7.246;2022-08-01T06:01:25;19.60;99.90
68051;DHT22;54839;51.364;7.246;2022-08-01T06:03:51;19.50;99.90
68051;DHT22;54839;51.364;7.246;2022-08-01T06:06:18;19.50;99.90
68051;DHT22;54839;51.364;7.246;2022-08-01T06:08:43;19.30;99.90
68051;DHT22;54839;51.364;7.246;2022-08-01T06:11:09;19.10;99.90
68051;DHT22;54839;51.364;7.246;2022-08-01T06:13:34;19.10;99.90
68051;DHT22;54839;51.364;7.246;2022-08-01T06:16:00;19.00;99.90
68051;DHT22;54839;51.364;7.246;2022-08-01T06:18:26;19.00;99.90
68051;DHT22;54839;51.364;7.246;2022-08-01T06:20:51;19.10;99.90
68051;DHT22;54839;51.364;7.246;2022-08-01T06:23:17;19.00;99.90
68051;DHT22;54839;51.364;7.246;2022-08-01T06:25:43;19.00;99.90
68051;DHT22;54839;51.364;7.246;2022-08-01T06:28:09;19.10;99.90
68051;DHT22;54839;51.364;7.246;2022-08-01T06:30:34;19.20;99.90
68051;DHT22;54839;51.364;7.246;2022-08-01T06:33:00;19.30;99.90
68051;DHT22;54839;51.364;7.246;2022-08-01T06:35:27;19.20;99.90
68051;DHT22;54839;51.364;7.246;2022-08-01T06:37:55;19.50;99.90
68051;DHT22;54839;51.364;7.246;2022-08-01T06:40:20;19.60;99.90
68051;DHT22;54839;51.364;7.246;2022-08-01T06:42:46;19.80;99.90
68051;DHT22;54839;51.364;7.246;2022-08-01T06:45:12;20.10;99.90
68051;DHT22;54839;51.364;7.246;2022-08-01T06:47:39;20.30;99.90
68051;DHT22;54839;51.364;7.246;2022-08-01T06:50:06;20.60;99.90
68051;DHT22;54839;51.364;7.246;2022-08-01T06:52:33;20.60;99.90
68051;DHT22;54839;51.364;7.246;2022-08-01T06:54:59;20.70;99.90
68051;DHT22;54839;51.364;7.246;2022-08-01T06:57:25;21.00;99.90
68051;DHT22;54839;51.364;7.246;2022-08-01T06:59:51;20.90;99.90
68051;DHT22;54839;51.364;7.246;2022-08-01T07:02:17;21.00;99.90
68051;DHT22;54839;51.364;7.246;2022-08-01T07:04:42;20.90;99.90
68051;DHT22;54839;51.364;7.246;2022-08-01T07:07:08;20.40;99.90
68051;DHT22;54839;51.364;7.246;2022-08-01T07:09:34;20.30;99.90
68051;DHT22;54839;51.364;7.246;2022-08-01T07:11:59;20.30;99.90
68051;DHT22;54839;51.364;7.246;2022-08-01T07:14:25;20.20;99.90
68051;DHT22;54839;51.364;7.246;2022-08-01T07:16:51;20.20;99.90
68051;DHT22;54839;51.364;7.246;2022-08-01T07:19:17;20.10;99.90
68051;DHT22;54839;51.364;7.246;2022-08-01T07:21:43;20.00;99.90
68051;DHT22;54839;51.364;7.246;2022-08-01T07:24:10;20.00;99.90
68051;DHT22;54839;51.364;7.246;2022-08-01T07:26:36;20.00;99.90
68051;DHT22;54839;51.364;7.246;2022-08-01T07:29:02;20.30;99.90
68051;DHT22;54839;51.364;7.246;2022-08-01T07:31:28;20.80;99.90
68051;DHT22;54839;51.364;7.246;2022-08-01T07:33:54;20.40;99.90
68051;DHT22;54839;51.364;7.246;2022-08-01T07:36:19;20.50;99.90
68051;DHT22;54839;51.364;7.246;2022-08-01T07:38:46;20.40;99.90
68051;DHT22;54839;51.364;7.246;2022-08-01T07:41:11;20.40;99.90
68051;DHT22;54839;51.364;7.246;2022-08-01T07:43:37;20.60;99.90
68051;DHT22;54839;51.364;7.246;2022-08-01T07:46:04;20.80;99.90
68051;DHT22;54839;51.364;7.246;2022-08-01T07:48:29;21.20;99.90
68051;DHT22;54839;51.364;7.246;2022-08-01T07:50:55;21.20;99.90
68051;DHT22;54839;51.364;7.246;2022-08-01T07:53:21;21.20;99.90
68051;DHT22;54839;51.364;7.246;2022-08-01T07:55:47;21.00;99.90
68051;DHT22;54839;51.364;7.246;2022-08-01T07:58:13;20.80;99.90
68051;DHT22;54839;51.364;7.246;2022-08-01T08:00:39;20.90;99.90
68051;DHT22;54839;51.364;7.246;2022-08-01T08:03:05;20.80;99.90
68051;DHT22;54839;51.364;7.246;2022-08-01T08:05:31;20.90;99.90
68051;DHT22;54839;51.364;7.246;2022-08-01T08:07:57;20.80;99.90
68051;DHT22;54839;51.364;7.246;2022-08-01T08:10:23;20.70;99.90
68051;DHT22;54839;51.364;7.246;2022-08-01T08:12:49;21.20;99.90
68051;DHT22;54839;51.364;7.246;2022-08-01T08:15:15;21.50;99.90
68051;DHT22;54839;51.364;7.246;2022-08-01T08:17:41;21.90;99.90
68051;DHT22;54839;51.364;7.246;2022-08-01T08:20:07;21.70;99.90
68051;DHT22;54839;51.364;7.246;2022-08-01T08:22:33;22.10;99.90
68051;DHT22;54839;51.364;7.246;2022-08-01T08:25:00;22.30;99.90
68051;DHT22;54839;51.364;7.246;2022-08-01T08:27:26;22.10;99.90
68051;DHT22;54839;51.364;7.246;2022-08-01T08:29:51;21.70;99.90
68051;DHT22;54839;51.364;7.246;2022-08-01T08:32:17;21.70;99.90
68051;DHT22;54839;51.364;7.246;2022-08-01T08:34:43;21.40;99.90
68051;DHT22;54839;51.364;7.246;2022-08-01T08:37:09;21.60;99.90
68051;DHT22;54839;51.364;7.246;2022-08-01T08:39:34;21.50;99.90
68051;DHT22;54839;51.364;7.246;2022-08-01T08:42:00;21.70;99.90
68051;DHT22;54839;51.364;7.246;2022-08-01T08:44:27;22.10;99.90
68051;DHT22;54839;51.364;7.246;2022-08-01T08:46:53;22.40;99.90
68051;DHT22;54839;51.364;7.246;2022-08-01T08:49:26;23.00;99.90
68051;DHT22;54839;51.364;7.246;2022-08-01T08:51:53;22.80;99.90
68051;DHT22;54839;51.364;7.246;2022-08-01T08:54:22;23.00;99.90
68051;DHT22;54839;51.364;7.246;2022-08-01T08:56:51;23.10;99.90
68051;DHT22;54839;51.364;7.246;2022-08-01T08:59:17;23.20;99.90
68051;DHT22;54839;51.364;7.246;2022-08-01T09:01:43;23.60;99.90
68051;DHT22;54839;51.364;7.246;2022-08-01T09:04:10;23.10;99.90
68051;DHT22;54839;51.364;7.246;2022-08-01T09:06:36;23.50;99.90
68051;DHT22;54839;51.364;7.246;2022-08-01T09:09:02;23.80;99.90
68051;DHT22;54839;51.364;7.246;2022-08-01T09:11:28;23.20;99.90
68051;DHT22;54839;51.364;7.246;2022-08-01T09:16:28;23.40;99.90
68051;DHT22;54839;51.364;7.246;2022-08-01T09:19:10;23.50;99.90
68051;DHT22;54839;51.364;7.246;2022-08-01T09:21:37;23.90;99.90
68051;DHT22;54839;51.364;7.246;2022-08-01T09:24:03;23.70;99.90
68051;DHT22;54839;51.364;7.246;2022-08-01T09:26:35;23.30;99.90
68051;DHT22;54839;51.364;7.246;2022-08-01T09:29:08;22.70;99.90
68051;DHT22;54839;51.364;7.246;2022-08-01T09:31:43;22.40;99.90
68051;DHT22;54839;51.364;7.246;2022-08-01T09:34:09;22.70;99.90
68051;DHT22;54839;51.364;7.246;2022-08-01T09:39:18;23.00;99.90
68051;DHT22;54839;51.364;7.246;2022-08-01T09:41:45;23.40;99.90
68051;DHT22;54839;51.364;7.246;2022-08-01T09:44:11;23.90;99.90
68051;DHT22;54839;51.364;7.246;2022-08-01T09:46:49;24.20;99.90
68051;DHT22;54839;51.364;7.246;2022-08-01T09:49:14;24.30;99.90
68051;DHT22;54839;51.364;7.246;2022-08-01T09:51:52;24.80;99.90
68051;DHT22;54839;51.364;7.246;2022-08-01T09:54:32;25.10;99.90
68051;DHT22;54839;51.364;7.246;2022-08-01T09:57:18;25.20;99.90
68051;DHT22;54839;51.364;7.246;2022-08-01T09:59:46;24.00;99.90
68051;DHT22;54839;51.364;7.246;2022-08-01T10:02:14;23.40;99.90
68051;DHT22;54839;51.364;7.246;2022-08-01T10:04:50;23.10;99.90
68051;DHT22;54839;51.364;7.246;2022-08-01T10:07:18;23.50;99.90
68051;DHT22;54839;51.364;7.246;2022-08-01T10:09:44;23.60;99.90
68051;DHT22;54839;51.364;7.246;2022-08-01T10:12:12;23.90;99.90
68051;DHT22;54839;51.364;7.246;2022-08-01T10:14:38;23.70;99.90
68051;DHT22;54839;51.364;7.246;2022-08-01T10:17:08;24.10;99.90
68051;DHT22;54839;51.364;7.246;2022-08-01T10:19:35;23.80;99.90
68051;DHT22;54839;51.364;7.246;2022-08-01T10:22:07;23.60;99.90
68051;DHT22;54839;51.364;7.246;2022-08-01T10:24:36;23.60;99.90
68051;DHT22;54839;51.364;7.246;2022-08-01T10:27:04;23.70;99.90
68051;DHT22;54839;51.364;7.246;2022-08-01T10:29:43;24.10;99.90
68051;DHT22;54839;51.364;7.246;2022-08-01T10:32:11;24.10;99.90
68051;DHT22;54839;51.364;7.246;2022-08-01T10:34:37;23.70;99.90
68051;DHT22;54839;51.364;7.246;2022-08-01T10:37:04;24.00;99.90
68051;DHT22;54839;51.364;7.246;2022-08-01T10:39:32;23.90;99.90
68051;DHT22;54839;51.364;7.246;2022-08-01T10:41:58;24.00;99.90
68051;DHT22;54839;51.364;7.246;2022-08-01T10:44:25;24.30;99.90
68051;DHT22;54839;51.364;7.246;2022-08-01T10:47:01;24.50;99.90
68051;DHT22;54839;51.364;7.246;2022-08-01T10:49:30;24.90;99.90
68051;DHT22;54839;51.364;7.246;2022-08-01T10:51:57;25.00;99.90
68051;DHT22;54839;51.364;7.246;2022-08-01T10:54:26;25.30;99.90
68051;DHT22;54839;51.364;7.246;2022-08-01T10:56:52;25.30;99.90
68051;DHT22;54839;51.364;7.246;2022-08-01T10:59:24;25.30;99.90
68051;DHT22;54839;51.364;7.246;2022-08-01T11:02:01;25.20;99.90
68051;DHT22;54839;51.364;7.246;2022-08-01T11:04:57;25.40;99.90
68051;DHT22;54839;51.364;7.246;2022-08-01T11:07:43;25.40;99.90
68051;DHT22;54839;51.364;7.246;2022-08-01T11:12:56;25.20;99.90
68051;DHT22;54839;51.364;7.246;2022-08-01T11:15:22;25.20;99.90
68051;DHT22;54839;51.364;7.246;2022-08-01T11:17:53;24.90;99.90
68051;DHT22;54839;51.364;7.246;2022-08-01T11:20:31;24.80;99.90
68051;DHT22;54839;51.364;7.246;2022-08-01T11:25:27;25.50;99.90
68051;DHT22;54839;51.364;7.246;2022-08-01T11:30:53;25.90;99.90
68051;DHT22;54839;51.364;7.246;2022-08-01T11:38:43;26.10;99.90
68051;DHT22;54839;51.364;7.246;2022-08-01T11:41:17;25.90;99.90
68051;DHT22;54839;51.364;7.246;2022-08-01T11:46:45;25.60;99.90
68051;DHT22;54839;51.364;7.246;2022-08-01T11:52:19;26.00;99.90
68051;DHT22;54839;51.364;7.246;2022-08-01T11:54:53;25.80;99.90
68051;DHT22;54839;51.364;7.246;2022-08-01T11:57:20;25.50;99.90
68051;DHT22;54839;51.364;7.246;2022-08-01T11:59:49;25.60;99.90
68051;DHT22;54839;51.364;7.246;2022-08-01T12:04:52;26.20;99.90
68051;DHT22;54839;51.364;7.246;2022-08-01T12:07:19;26.40;99.90
68051;DHT22;54839;51.364;7.246;2022-08-01T12:09:45;27.30;99.90
68051;DHT22;54839;51.364;7.246;2022-08-01T12:12:15;26.70;99.90
68051;DHT22;54839;51.364;7.246;2022-08-01T12:14:43;26.40;99.90
68051;DHT22;54839;51.364;7.246;2022-08-01T12:17:08;25.40;99.90
68051;DHT22;54839;51.364;7.246;2022-08-01T12:19:34;24.90;99.90
68051;DHT22;54839;51.364;7.246;2022-08-01T12:22:08;24.60;99.90
68051;DHT22;54839;51.364;7.246;2022-08-01T12:24:40;24.60;99.90
68051;DHT22;54839;51.364;7.246;2022-08-01T12:27:07;24.90;99.90
68051;DHT22;54839;51.364;7.246;2022-08-01T12:29:35;25.10;99.90
68051;DHT22;54839;51.364;7.246;2022-08-01T12:32:02;25.80;99.90
68051;DHT22;54839;51.364;7.246;2022-08-01T12:34:28;26.20;99.90
68051;DHT22;54839;51.364;7.246;2022-08-01T12:36:59;26.60;99.90
68051;DHT22;54839;51.364;7.246;2022-08-01T12:39:34;26.90;99.90
68051;DHT22;54839;51.364;7.246;2022-08-01T12:42:01;27.70;99.90
68051;DHT22;54839;51.364;7.246;2022-08-01T12:44:30;27.20;99.90
68051;DHT22;54839;51.364;7.246;2022-08-01T12:46:56;27.00;99.90
68051;DHT22;54839;51.364;7.246;2022-08-01T12:49:23;26.80;99.90
68051;DHT22;54839;51.364;7.246;2022-08-01T12:51:50;28.80;99.90
68051;DHT22;54839;51.364;7.246;2022-08-01T12:54:16;30.00;99.90
68051;DHT22;54839;51.364;7.246;2022-08-01T12:56:41;30.20;99.90
68051;DHT22;54839;51.364;7.246;2022-08-01T12:59:27;29.90;99.90
68051;DHT22;54839;51.364;7.246;2022-08-01T13:02:07;31.70;99.90
68051;DHT22;54839;51.364;7.246;2022-08-01T13:04:49;34.00;99.20
68051;DHT22;54839;51.364;7.246;2022-08-01T13:07:16;32.30;97.00
68051;DHT22;54839;51.364;7.246;2022-08-01T13:09:51;30.50;99.20
68051;DHT22;54839;51.364;7.246;2022-08-01T13:12:17;29.80;99.90
68051;DHT22;54839;51.364;7.246;2022-08-01T13:14:43;29.20;99.90
68051;DHT22;54839;51.364;7.246;2022-08-01T13:17:08;28.90;99.90
68051;DHT22;54839;51.364;7.246;2022-08-01T13:19:46;29.30;99.90
68051;DHT22;54839;51.364;7.246;2022-08-01T13:22:13;31.80;99.90
68051;DHT22;54839;51.364;7.246;2022-08-01T13:24:38;32.90;96.60
68051;DHT22;54839;51.364;7.246;2022-08-01T13:27:07;34.20;92.90
68051;DHT22;54839;51.364;7.246;2022-08-01T13:29:45;35.60;91.00
68051;DHT22;54839;51.364;7.246;2022-08-01T13:32:17;37.40;85.20
68051;DHT22;54839;51.364;7.246;2022-08-01T13:34:43;37.90;79.60
68051;DHT22;54839;51.364;7.246;2022-08-01T13:37:12;37.80;74.20
68051;DHT22;54839;51.364;7.246;2022-08-01T13:39:46;35.30;77.40
68051;DHT22;54839;51.364;7.246;2022-08-01T13:42:16;31.80;85.80
68051;DHT22;54839;51.364;7.246;2022-08-01T13:44:42;30.00;91.40
68051;DHT22;54839;51.364;7.246;2022-08-01T13:47:10;28.90;94.40
68051;DHT22;54839;51.364;7.246;2022-08-01T13:49:36;28.20;96.40
68051;DHT22;54839;51.364;7.246;2022-08-01T13:52:03;28.10;98.00
68051;DHT22;54839;51.364;7.246;2022-08-01T13:54:28;28.10;98.30
68051;DHT22;54839;51.364;7.246;2022-08-01T13:56:57;28.40;98.40
68051;DHT22;54839;51.364;7.246;2022-08-01T13:59:22;28.60;98.70
68051;DHT22;54839;51.364;7.246;2022-08-01T14:01:48;30.30;97.30
68051;DHT22;54839;51.364;7.246;2022-08-01T14:04:14;30.90;95.10
68051;DHT22;54839;51.364;7.246;2022-08-01T14:06:40;29.80;95.50
68051;DHT22;54839;51.364;7.246;2022-08-01T14:09:05;28.30;97.10
68051;DHT22;54839;51.364;7.246;2022-08-01T14:11:31;28.00;98.60
68051;DHT22;54839;51.364;7.246;2022-08-01T14:13:57;27.40;99.90
68051;DHT22;54839;51.364;7.246;2022-08-01T14:16:27;26.40;99.90
68051;DHT22;54839;51.364;7.246;2022-08-01T14:18:52;25.90;99.90
68051;DHT22;54839;51.364;7.246;2022-08-01T14:21:18;25.80;99.90
68051;DHT22;54839;51.364;7.246;2022-08-01T14:23:44;26.40;99.90
68051;DHT22;54839;51.364;7.246;2022-08-01T14:26:10;26.30;99.90
68051;DHT22;54839;51.364;7.246;2022-08-01T14:28:36;26.60;99.90
68051;DHT22;54839;51.364;7.246;2022-08-01T14:31:02;26.60;99.90
68051;DHT22;54839;51.364;7.246;2022-08-01T14:33:28;26.60;99.90
68051;DHT22;54839;51.364;7.246;2022-08-01T14:35:57;26.90;99.90
68051;DHT22;54839;51.364;7.246;2022-08-01T14:38:28;26.90;99.90
68051;DHT22;54839;51.364;7.246;2022-08-01T14:40:54;27.10;99.90
68051;DHT22;54839;51.364;7.246;2022-08-01T14:43:20;26.80;99.90
68051;DHT22;54839;51.364;7.246;2022-08-01T14:45:47;26.60;99.90
68051;DHT22;54839;51.364;7.246;2022-08-01T14:48:16;26.60;99.90
68051;DHT22;54839;51.364;7.246;2022-08-01T14:50:42;26.90;99.90
68051;DHT22;54839;51.364;7.246;2022-08-01T14:53:13;27.00;99.90
68051;DHT22;54839;51.364;7.246;2022-08-01T14:55:39;27.10;99.90
68051;DHT22;54839;51.364;7.246;2022-08-01T14:58:05;27.30;99.90
68051;DHT22;54839;51.364;7.246;2022-08-01T15:00:30;27.40;99.90
68051;DHT22;54839;51.364;7.246;2022-08-01T15:03:02;27.30;99.90
68051;DHT22;54839;51.364;7.246;2022-08-01T15:05:28;27.20;99.90
68051;DHT22;54839;51.364;7.246;2022-08-01T15:07:55;27.30;99.90
68051;DHT22;54839;51.364;7.246;2022-08-01T15:10:21;27.40;99.90
68051;DHT22;54839;51.364;7.246;2022-08-01T15:12:48;27.70;99.90
68051;DHT22;54839;51.364;7.246;2022-08-01T15:15:13;28.00;99.90
68051;DHT22;54839;51.364;7.246;2022-08-01T15:17:39;28.00;99.90
68051;DHT22;54839;51.364;7.246;2022-08-01T15:20:06;27.20;99.90
68051;DHT22;54839;51.364;7.246;2022-08-01T15:22:32;27.00;99.90
68051;DHT22;54839;51.364;7.246;2022-08-01T15:24:59;26.80;99.90
68051;DHT22;54839;51.364;7.246;2022-08-01T15:27:26;26.90;99.90
68051;DHT22;54839;51.364;7.246;2022-08-01T15:29:53;27.40;99.90
68051;DHT22;54839;51.364;7.246;2022-08-01T15:32:19;27.50;99.90
68051;DHT22;54839;51.364;7.246;2022-08-01T15:34:44;27.00;99.90
68051;DHT22;54839;51.364;7.246;2022-08-01T15:37:11;26.50;99.90
68051;DHT22;54839;51.364;7.246;2022-08-01T15:39:36;26.30;99.90
68051;DHT22;54839;51.364;7.246;2022-08-01T15:42:14;26.00;99.90
68051;DHT22;54839;51.364;7.246;2022-08-01T15:44:40;25.70;99.90
68051;DHT22;54839;51.364;7.246;2022-08-01T15:47:07;25.60;99.90
68051;DHT22;54839;51.364;7.246;2022-08-01T15:49:33;25.70;99.90
68051;DHT22;54839;51.364;7.246;2022-08-01T15:52:01;25.90;99.90
68051;DHT22;54839;51.364;7.246;2022-08-01T15:54:27;27.00;99.90
68051;DHT22;54839;51.364;7.246;2022-08-01T15:56:52;27.50;99.90
68051;DHT22;54839;51.364;7.246;2022-08-01T15:59:21;28.50;99.90
68051;DHT22;54839;51.364;7.246;2022-08-01T16:01:47;29.00;99.90
68051;DHT22;54839;51.364;7.246;2022-08-01T16:04:15;28.40;99.90
68051;DHT22;54839;51.364;7.246;2022-08-01T16:06:41;28.20;99.90
68051;DHT22;54839;51.364;7.246;2022-08-01T16:09:07;28.20;99.90
68051;DHT22;54839;51.364;7.246;2022-08-01T16:11:33;28.40;99.80